Cologne, Minnesota
Current Conditions -  °F | °C
As of 6:54 PM on Tuesday 21 Oct 2014 (Local Time) from KGYL Reporting Station
Clear Clear  
Wind Chill: 55°   Ceiling: Unl
Heat Index: 55°   Visibility: 10mi
Dew Point: 43°   Wind: 9mph
Humidity: 63%   Direction: 110°ESE
Pressure: 30.1"   Gusts: NA
Location:  44.77°N, 93.78°W
Report Text: KGYL 212354Z AUTO 11008KT 10SM CLR 13/06 A3010 RMK AO2 T01300060 10172 20130
Loading
Personal Weather Stations






























Interactive Weather Map
Tropical Storm Tracking
New forecast layout! Learn more

10-Day Weather Forecast

Advertisements
Track Severe Weather on mobile